createdAt,value
2018-09-05T00:00:17.608Z,21.60
2018-09-05T00:02:46.447Z,21.50
2018-09-05T00:05:15.300Z,21.50
2018-09-05T00:07:44.148Z,21.80
2018-09-05T00:12:41.493Z,21.40
2018-09-05T00:15:10.425Z,21.40
2018-09-05T00:20:07.901Z,21.30
2018-09-05T00:22:36.731Z,21.30
2018-09-05T00:25:05.900Z,21.20
2018-09-05T00:30:03.273Z,21.10
2018-09-05T00:35:00.635Z,21.00
2018-09-05T00:37:29.492Z,21.00
2018-09-05T00:42:26.818Z,21.00
2018-09-05T00:47:24.147Z,20.80
2018-09-05T00:49:57.483Z,20.80
2018-09-05T00:54:58.268Z,20.70
2018-09-05T00:57:28.084Z,20.70
2018-09-05T01:02:25.461Z,20.70
2018-09-05T01:04:54.378Z,20.70
2018-09-05T01:12:22.704Z,20.60
2018-09-05T01:24:47.644Z,20.60
2018-09-05T01:27:16.616Z,20.60
2018-09-05T01:37:11.951Z,20.50
2018-09-05T01:39:41.118Z,20.50
2018-09-05T01:47:08.406Z,20.30
2018-09-05T01:49:37.243Z,20.30
2018-09-05T01:52:06.111Z,20.20
2018-09-05T01:54:34.955Z,20.10
2018-09-05T01:59:32.911Z,20.10
2018-09-05T02:02:01.888Z,20.10
2018-09-05T10:58:16.907Z,31.70
2018-09-05T11:00:45.707Z,31.80
2018-09-05T11:03:14.544Z,31.90
2018-09-05T11:06:25.651Z,32.00
2018-09-05T11:08:54.874Z,32.10
2018-09-05T11:11:26.181Z,32.20
2018-09-05T11:13:55.075Z,32.30
2018-09-05T11:16:23.934Z,32.30
2018-09-05T11:18:52.905Z,32.40
2018-09-05T11:21:21.923Z,32.40
2018-09-05T11:23:50.719Z,33.00
2018-09-05T11:26:19.673Z,32.50
2018-09-05T11:28:50.602Z,32.60
2018-09-05T11:31:20.384Z,32.60
2018-09-05T11:33:49.333Z,32.60
2018-09-05T11:36:18.178Z,32.70
2018-09-05T11:38:47.881Z,32.10
2018-09-05T11:41:16.972Z,32.90
2018-09-05T11:43:45.932Z,32.80
2018-09-05T11:46:15.020Z,32.80
2018-09-05T11:48:43.875Z,32.90
2018-09-05T11:51:13.075Z,32.90
2018-09-05T11:53:42.005Z,32.30
2018-09-05T11:56:10.911Z,33.10
2018-09-05T11:58:39.753Z,33.10
2018-09-05T12:01:09.090Z,33.10
2018-09-05T12:03:38.061Z,33.20
2018-09-05T12:06:07.026Z,33.30
2018-09-05T12:08:35.855Z,33.40
2018-09-05T12:11:04.727Z,33.60
2018-09-05T12:13:33.557Z,32.70
2018-09-05T12:16:02.409Z,33.60
2018-09-05T12:18:31.260Z,33.70
2018-09-05T12:21:00.127Z,33.60
2018-09-05T12:23:28.986Z,33.80
2018-09-05T12:25:57.852Z,33.90
2018-09-05T12:28:26.700Z,34.00
2018-09-05T12:30:55.644Z,34.00
2018-09-05T12:33:24.604Z,34.10
2018-09-05T12:35:53.461Z,33.10
2018-09-05T12:38:22.620Z,34.20
2018-09-05T12:40:51.385Z,34.20
2018-09-05T12:43:20.230Z,34.10
2018-09-05T12:45:49.987Z,34.20
2018-09-05T12:48:18.879Z,34.30
2018-09-05T12:50:47.822Z,34.30
2018-09-05T12:53:16.628Z,34.30
2018-09-05T12:55:45.503Z,34.40
2018-09-05T12:58:14.392Z,34.50
2018-09-05T13:00:43.231Z,34.60
2018-09-05T13:03:12.078Z,34.60
2018-09-05T13:05:40.917Z,34.70
2018-09-05T13:08:09.756Z,34.80
2018-09-05T13:10:38.609Z,34.90
2018-09-05T13:13:07.515Z,35.00
2018-09-05T13:15:36.635Z,35.00
2018-09-05T13:18:05.576Z,35.10
2018-09-05T13:20:34.472Z,35.20
2018-09-05T13:23:03.459Z,35.10
2018-09-05T13:25:32.325Z,35.10
2018-09-05T13:28:01.803Z,35.10
2018-09-05T13:30:30.883Z,35.10
2018-09-05T13:33:00.360Z,35.50
2018-09-05T13:35:29.196Z,35.10
2018-09-05T13:37:58.087Z,34.90
2018-09-05T13:40:27.677Z,34.90
2018-09-05T13:42:57.172Z,34.90
2018-09-05T13:45:26.088Z,34.90
2018-09-05T13:47:54.959Z,34.90
2018-09-05T13:50:23.941Z,34.90
2018-09-05T13:52:52.799Z,34.90
2018-09-05T13:55:21.670Z,35.00
2018-09-05T13:57:50.557Z,35.00
2018-09-05T14:00:19.442Z,35.00
2018-09-05T14:02:48.337Z,35.00
2018-09-05T14:05:17.705Z,35.00
2018-09-05T14:07:46.567Z,35.00
2018-09-05T14:10:18.956Z,35.00
2018-09-05T14:12:54.291Z,35.00
2018-09-05T14:15:23.250Z,35.00
2018-09-05T14:17:52.390Z,35.00
2018-09-05T14:20:21.261Z,35.00
2018-09-05T14:22:50.238Z,35.00
2018-09-05T14:25:19.081Z,35.00
2018-09-05T14:27:47.959Z,34.90
2018-09-05T14:30:16.873Z,34.90
2018-09-05T14:32:45.749Z,34.90
2018-09-05T14:35:14.733Z,34.90
2018-09-05T14:37:43.681Z,34.90
2018-09-05T14:40:14.667Z,34.90
2018-09-05T14:42:43.558Z,35.00
2018-09-05T14:45:13.227Z,35.00
2018-09-05T14:47:43.041Z,35.00
2018-09-05T14:50:12.124Z,35.10
2018-09-05T14:52:40.993Z,35.10
2018-09-05T15:07:36.800Z,35.10
2018-09-05T15:27:27.876Z,34.90
2018-09-05T15:32:25.893Z,34.70
2018-09-05T15:52:18.329Z,34.60
2018-09-05T15:54:47.267Z,34.60
2018-09-05T15:57:16.147Z,33.90
2018-09-05T16:07:13.819Z,33.70
2018-09-05T16:09:42.985Z,33.60
2018-09-05T16:12:11.806Z,33.50
2018-09-05T16:14:40.650Z,33.30
2018-09-05T16:17:09.496Z,33.30
2018-09-05T16:22:07.674Z,32.90
2018-09-05T16:27:06.841Z,33.00
2018-09-05T16:29:35.724Z,32.80
2018-09-05T16:51:54.169Z,31.80
2018-09-05T16:54:23.029Z,31.70
2018-09-05T16:56:51.859Z,31.60
2018-09-05T16:59:21.835Z,31.40
2018-09-05T17:01:50.755Z,31.30
2018-09-05T17:04:19.644Z,31.20
2018-09-05T17:06:48.509Z,31.10
2018-09-05T17:09:17.630Z,31.00
2018-09-05T17:11:46.504Z,30.80
2018-09-05T17:14:15.425Z,30.70
2018-09-05T17:16:44.593Z,30.60
2018-09-05T17:26:40.752Z,30.20
2018-09-05T17:29:09.673Z,30.20
2018-09-05T17:31:38.941Z,30.10
2018-09-05T17:36:37.408Z,29.70
2018-09-05T17:41:37.343Z,29.60
2018-09-05T17:44:07.240Z,29.40
2018-09-05T17:49:04.647Z,29.80
2018-09-05T17:54:05.734Z,29.00
2018-09-05T17:56:34.696Z,29.00
2018-09-05T17:59:04.522Z,29.00
2018-09-05T18:01:33.666Z,28.90
2018-09-05T18:04:02.440Z,28.80
2018-09-05T18:06:31.448Z,28.80
2018-09-05T18:14:00.554Z,28.50
2018-09-05T18:16:29.497Z,28.50
2018-09-05T18:18:58.489Z,28.30
2018-09-05T18:21:27.394Z,28.20
2018-09-05T18:23:57.141Z,28.10
2018-09-05T18:26:26.176Z,28.10
2018-09-05T18:34:00.277Z,27.80
2018-09-05T18:36:34.260Z,27.70
2018-09-05T18:39:04.007Z,27.60
2018-09-05T18:41:33.829Z,27.50
2018-09-05T18:44:03.226Z,27.40
2018-09-05T18:46:32.140Z,27.30
2018-09-05T18:49:01.094Z,27.20
2018-09-05T18:51:30.096Z,27.10
2018-09-05T18:56:27.661Z,27.00
2018-09-05T18:58:56.686Z,26.90
2018-09-05T19:01:25.623Z,26.80
2018-09-05T19:03:54.513Z,26.70
2018-09-05T19:06:23.985Z,26.60
2018-09-05T19:08:52.852Z,26.50
2018-09-05T19:11:21.720Z,26.50
2018-09-05T19:13:50.657Z,26.40
2018-09-05T19:16:19.634Z,26.20
2018-09-05T19:18:48.632Z,26.20
2018-09-05T19:21:17.674Z,26.10
2018-09-05T19:23:46.712Z,26.00
2018-09-05T19:26:15.580Z,26.00
2018-09-05T19:31:15.035Z,25.60
2018-09-05T19:33:43.901Z,25.70
2018-09-05T19:38:43.199Z,25.50
2018-09-05T19:41:12.162Z,25.50
2018-09-05T19:51:07.622Z,25.20
2018-09-05T19:53:36.560Z,25.10
2018-09-05T19:56:05.423Z,25.00
2018-09-05T19:58:34.320Z,25.00
2018-09-05T20:06:02.660Z,24.70
2018-09-05T20:08:32.637Z,24.80
2018-09-05T20:11:02.465Z,24.70
2018-09-05T20:13:31.679Z,24.70
2018-09-05T20:16:00.660Z,24.70
2018-09-05T20:18:29.577Z,24.60
2018-09-05T20:20:58.436Z,24.60
2018-09-05T20:23:27.778Z,24.50
2018-09-05T20:25:56.835Z,24.50
2018-09-05T20:28:26.172Z,24.40
2018-09-05T20:30:55.199Z,24.40
2018-09-05T20:33:24.248Z,24.40
2018-09-05T20:35:53.151Z,24.30
2018-09-05T20:38:22.032Z,24.30
2018-09-05T20:40:51.494Z,24.20
2018-09-05T20:43:20.578Z,24.20
2018-09-05T20:45:49.863Z,24.10
2018-09-05T20:48:18.781Z,24.10
2018-09-05T20:50:47.682Z,24.10
2018-09-05T20:53:17.406Z,24.10
2018-09-05T20:55:46.268Z,24.00
2018-09-05T20:58:15.157Z,24.00
2018-09-05T21:00:44.032Z,23.90
2018-09-05T21:03:12.917Z,23.90
2018-09-05T21:05:41.824Z,23.80
2018-09-05T21:08:10.708Z,23.80
2018-09-05T21:10:39.623Z,23.70
2018-09-05T21:13:08.501Z,23.70
2018-09-05T21:15:37.384Z,23.70
2018-09-05T21:18:06.423Z,23.60
2018-09-05T21:20:35.211Z,23.60
2018-09-05T21:23:05.126Z,23.60
2018-09-05T21:25:34.060Z,23.50
2018-09-05T21:28:03.121Z,23.50
2018-09-05T21:30:32.034Z,23.40
2018-09-05T21:33:00.914Z,23.40
2018-09-05T21:35:31.640Z,23.40
2018-09-05T21:38:00.729Z,23.30
2018-09-05T21:40:29.939Z,23.30
2018-09-05T21:43:07.088Z,23.30
2018-09-05T21:45:36.008Z,23.20
2018-09-05T21:48:04.991Z,23.20
2018-09-05T21:50:33.948Z,23.20
2018-09-05T21:53:03.499Z,23.20
2018-09-05T21:55:32.689Z,23.10
2018-09-05T21:58:01.680Z,23.10
2018-09-05T22:00:30.604Z,23.10
2018-09-05T22:02:59.457Z,23.10
2018-09-05T22:05:28.356Z,23.10
2018-09-05T22:07:57.251Z,23.00
2018-09-05T22:10:26.103Z,23.00
2018-09-05T22:12:55.071Z,22.90
2018-09-05T22:15:25.900Z,22.90
2018-09-05T22:17:54.759Z,22.90
2018-09-05T22:20:23.616Z,22.80
2018-09-05T22:22:52.448Z,22.80
2018-09-05T22:25:21.343Z,22.70
2018-09-05T22:27:50.271Z,22.70
2018-09-05T22:30:19.199Z,22.70
2018-09-05T22:32:48.109Z,22.60
2018-09-05T22:35:17.065Z,22.60
2018-09-05T22:37:45.954Z,22.60
2018-09-05T22:40:14.923Z,22.50
2018-09-05T22:42:55.443Z,22.50
2018-09-05T22:45:35.780Z,22.50
2018-09-05T22:51:25.663Z,22.50
2018-09-05T22:54:10.726Z,22.40
2018-09-05T22:59:02.978Z,22.30
2018-09-05T23:01:40.787Z,22.20
2018-09-05T23:04:21.717Z,22.20
2018-09-05T23:15:13.282Z,22.10
2018-09-05T23:18:51.818Z,22.10
2018-09-05T23:24:04.505Z,21.70
2018-09-05T23:26:33.624Z,21.80
2018-09-05T23:29:02.550Z,21.80
2018-09-05T23:31:31.594Z,21.80
2018-09-05T23:34:00.492Z,21.70
2018-09-05T23:36:29.397Z,21.70
2018-09-05T23:38:58.271Z,21.70
2018-09-05T23:43:55.756Z,22.20
2018-09-05T23:46:24.639Z,21.70
2018-09-05T23:48:53.563Z,21.50
2018-09-05T23:53:51.312Z,21.50
2018-09-05T23:56:20.369Z,21.60
